sensor_id;sensor_type;location;lat;lon;timestamp;P1;durP1;ratioP1;P2;durP2;ratioP2
32292;SDS011;43233;48.608;8.838;2024-01-15T00:01:26;21.57;;;9.87;;
32292;SDS011;43233;48.608;8.838;2024-01-15T00:03:52;23.73;;;10.70;;
32292;SDS011;43233;48.608;8.838;2024-01-15T00:06:18;22.90;;;11.50;;
32292;SDS011;43233;48.608;8.838;2024-01-15T00:08:43;21.00;;;9.87;;
32292;SDS011;43233;48.608;8.838;2024-01-15T00:11:09;22.80;;;11.10;;
32292;SDS011;43233;48.608;8.838;2024-01-15T00:13:34;24.80;;;9.97;;
32292;SDS011;43233;48.608;8.838;2024-01-15T00:16:00;19.97;;;10.17;;
32292;SDS011;43233;48.608;8.838;2024-01-15T00:18:26;21.83;;;10.93;;
32292;SDS011;43233;48.608;8.838;2024-01-15T00:20:51;19.70;;;11.63;;
32292;SDS011;43233;48.608;8.838;2024-01-15T00:23:17;19.47;;;9.97;;
32292;SDS011;43233;48.608;8.838;2024-01-15T00:25:42;19.50;;;9.57;;
32292;SDS011;43233;48.608;8.838;2024-01-15T00:28:08;21.70;;;10.60;;
32292;SDS011;43233;48.608;8.838;2024-01-15T00:30:33;17.40;;;10.60;;
32292;SDS011;43233;48.608;8.838;2024-01-15T00:32:59;16.60;;;9.07;;
32292;SDS011;43233;48.608;8.838;2024-01-15T00:35:25;16.90;;;9.43;;
32292;SDS011;43233;48.608;8.838;2024-01-15T00:37:50;20.10;;;9.57;;
32292;SDS011;43233;48.608;8.838;2024-01-15T00:40:16;19.47;;;9.83;;
32292;SDS011;43233;48.608;8.838;2024-01-15T00:42:41;26.13;;;11.23;;
32292;SDS011;43233;48.608;8.838;2024-01-15T00:45:08;23.63;;;8.83;;
32292;SDS011;43233;48.608;8.838;2024-01-15T00:47:34;22.73;;;11.33;;
32292;SDS011;43233;48.608;8.838;2024-01-15T00:49:59;23.93;;;9.37;;
32292;SDS011;43233;48.608;8.838;2024-01-15T00:52:25;20.27;;;9.33;;
32292;SDS011;43233;48.608;8.838;2024-01-15T00:54:51;20.10;;;9.40;;
32292;SDS011;43233;48.608;8.838;2024-01-15T00:57:16;19.47;;;10.70;;
32292;SDS011;43233;48.608;8.838;2024-01-15T00:59:44;19.20;;;9.87;;
32292;SDS011;43233;48.608;8.838;2024-01-15T01:02:10;16.20;;;9.03;;
32292;SDS011;43233;48.608;8.838;2024-01-15T01:04:35;20.57;;;10.53;;
32292;SDS011;43233;48.608;8.838;2024-01-15T01:07:01;14.70;;;9.20;;
32292;SDS011;43233;48.608;8.838;2024-01-15T01:09:26;17.53;;;10.67;;
32292;SDS011;43233;48.608;8.838;2024-01-15T01:11:55;20.00;;;9.10;;
32292;SDS011;43233;48.608;8.838;2024-01-15T01:14:20;18.50;;;10.43;;
32292;SDS011;43233;48.608;8.838;2024-01-15T01:16:46;21.03;;;10.53;;
32292;SDS011;43233;48.608;8.838;2024-01-15T01:19:12;21.87;;;10.57;;
32292;SDS011;43233;48.608;8.838;2024-01-15T01:21:37;20.63;;;8.77;;
32292;SDS011;43233;48.608;8.838;2024-01-15T01:24:03;18.83;;;9.20;;
32292;SDS011;43233;48.608;8.838;2024-01-15T01:26:29;19.67;;;10.33;;
32292;SDS011;43233;48.608;8.838;2024-01-15T01:28:55;24.93;;;9.87;;
32292;SDS011;43233;48.608;8.838;2024-01-15T01:31:21;24.33;;;10.97;;
32292;SDS011;43233;48.608;8.838;2024-01-15T01:33:46;20.20;;;9.90;;
32292;SDS011;43233;48.608;8.838;2024-01-15T01:36:12;16.73;;;9.80;;
32292;SDS011;43233;48.608;8.838;2024-01-15T01:38:37;21.20;;;9.90;;
32292;SDS011;43233;48.608;8.838;2024-01-15T01:41:04;19.60;;;9.83;;
32292;SDS011;43233;48.608;8.838;2024-01-15T01:43:30;23.80;;;10.60;;
32292;SDS011;43233;48.608;8.838;2024-01-15T01:45:56;15.73;;;8.83;;
32292;SDS011;43233;48.608;8.838;2024-01-15T01:48:25;20.27;;;10.07;;
32292;SDS011;43233;48.608;8.838;2024-01-15T01:50:52;19.20;;;9.63;;
32292;SDS011;43233;48.608;8.838;2024-01-15T01:53:19;16.67;;;8.40;;
32292;SDS011;43233;48.608;8.838;2024-01-15T01:55:45;17.83;;;8.77;;
32292;SDS011;43233;48.608;8.838;2024-01-15T01:58:11;23.07;;;10.27;;
32292;SDS011;43233;48.608;8.838;2024-01-15T02:00:37;19.17;;;10.57;;
32292;SDS011;43233;48.608;8.838;2024-01-15T02:03:03;22.20;;;10.03;;
32292;SDS011;43233;48.608;8.838;2024-01-15T02:05:29;22.50;;;11.03;;
32292;SDS011;43233;48.608;8.838;2024-01-15T02:07:55;21.57;;;10.57;;
32292;SDS011;43233;48.608;8.838;2024-01-15T02:10:21;22.00;;;9.43;;
32292;SDS011;43233;48.608;8.838;2024-01-15T02:12:47;17.57;;;10.20;;
32292;SDS011;43233;48.608;8.838;2024-01-15T02:15:13;26.43;;;11.10;;
32292;SDS011;43233;48.608;8.838;2024-01-15T02:17:58;24.27;;;9.60;;
32292;SDS011;43233;48.608;8.838;2024-01-15T02:20:30;23.17;;;11.13;;
32292;SDS011;43233;48.608;8.838;2024-01-15T02:25:32;18.80;;;10.40;;
32292;SDS011;43233;48.608;8.838;2024-01-15T02:27:58;26.03;;;10.50;;
32292;SDS011;43233;48.608;8.838;2024-01-15T02:30:24;24.20;;;9.60;;
32292;SDS011;43233;48.608;8.838;2024-01-15T02:32:51;27.90;;;11.17;;
32292;SDS011;43233;48.608;8.838;2024-01-15T02:35:17;21.20;;;10.10;;
32292;SDS011;43233;48.608;8.838;2024-01-15T02:37:42;23.30;;;10.93;;
32292;SDS011;43233;48.608;8.838;2024-01-15T02:40:08;22.13;;;10.20;;
32292;SDS011;43233;48.608;8.838;2024-01-15T02:42:34;23.83;;;12.17;;
32292;SDS011;43233;48.608;8.838;2024-01-15T02:45:00;24.93;;;11.43;;
32292;SDS011;43233;48.608;8.838;2024-01-15T02:47:25;19.10;;;9.23;;
32292;SDS011;43233;48.608;8.838;2024-01-15T02:49:51;21.93;;;10.30;;
32292;SDS011;43233;48.608;8.838;2024-01-15T02:52:16;20.07;;;9.60;;
32292;SDS011;43233;48.608;8.838;2024-01-15T02:54:43;17.13;;;9.77;;
32292;SDS011;43233;48.608;8.838;2024-01-15T02:57:08;22.70;;;10.30;;
32292;SDS011;43233;48.608;8.838;2024-01-15T02:59:34;24.00;;;11.60;;
32292;SDS011;43233;48.608;8.838;2024-01-15T03:01:59;26.87;;;11.80;;
32292;SDS011;43233;48.608;8.838;2024-01-15T03:04:25;18.67;;;9.50;;
32292;SDS011;43233;48.608;8.838;2024-01-15T03:06:50;22.57;;;11.13;;
32292;SDS011;43233;48.608;8.838;2024-01-15T03:09:16;23.27;;;10.07;;
32292;SDS011;43233;48.608;8.838;2024-01-15T03:11:42;20.60;;;10.03;;
32292;SDS011;43233;48.608;8.838;2024-01-15T03:14:07;26.17;;;10.97;;
32292;SDS011;43233;48.608;8.838;2024-01-15T03:16:33;22.10;;;10.70;;
32292;SDS011;43233;48.608;8.838;2024-01-15T03:18:59;23.10;;;11.13;;
32292;SDS011;43233;48.608;8.838;2024-01-15T03:21:24;19.60;;;10.93;;
32292;SDS011;43233;48.608;8.838;2024-01-15T03:23:50;26.67;;;11.70;;
32292;SDS011;43233;48.608;8.838;2024-01-15T03:26:15;21.60;;;10.73;;
32292;SDS011;43233;48.608;8.838;2024-01-15T03:28:41;20.67;;;10.77;;
32292;SDS011;43233;48.608;8.838;2024-01-15T03:31:07;30.63;;;12.80;;
32292;SDS011;43233;48.608;8.838;2024-01-15T03:33:32;21.57;;;11.40;;
32292;SDS011;43233;48.608;8.838;2024-01-15T03:35:58;25.40;;;11.07;;
32292;SDS011;43233;48.608;8.838;2024-01-15T03:38:24;25.57;;;11.80;;
32292;SDS011;43233;48.608;8.838;2024-01-15T03:40:51;30.70;;;11.23;;
32292;SDS011;43233;48.608;8.838;2024-01-15T03:43:17;28.77;;;11.77;;
32292;SDS011;43233;48.608;8.838;2024-01-15T03:45:43;27.87;;;12.53;;
32292;SDS011;43233;48.608;8.838;2024-01-15T03:48:08;28.13;;;11.57;;
32292;SDS011;43233;48.608;8.838;2024-01-15T03:50:34;23.77;;;11.97;;
32292;SDS011;43233;48.608;8.838;2024-01-15T03:53:00;21.17;;;9.70;;
32292;SDS011;43233;48.608;8.838;2024-01-15T03:55:25;39.73;;;13.30;;
32292;SDS011;43233;48.608;8.838;2024-01-15T03:57:51;25.37;;;12.37;;
32292;SDS011;43233;48.608;8.838;2024-01-15T04:00:17;22.07;;;11.00;;
32292;SDS011;43233;48.608;8.838;2024-01-15T04:02:43;24.40;;;11.87;;
32292;SDS011;43233;48.608;8.838;2024-01-15T04:05:09;25.53;;;12.67;;
32292;SDS011;43233;48.608;8.838;2024-01-15T04:07:35;26.60;;;11.20;;
32292;SDS011;43233;48.608;8.838;2024-01-15T04:10:00;24.10;;;11.67;;
32292;SDS011;43233;48.608;8.838;2024-01-15T04:12:26;28.77;;;12.60;;
32292;SDS011;43233;48.608;8.838;2024-01-15T04:14:52;32.40;;;13.53;;
32292;SDS011;43233;48.608;8.838;2024-01-15T04:17:17;26.43;;;11.13;;
32292;SDS011;43233;48.608;8.838;2024-01-15T04:19:43;25.93;;;11.73;;
32292;SDS011;43233;48.608;8.838;2024-01-15T04:22:09;24.97;;;12.80;;
32292;SDS011;43233;48.608;8.838;2024-01-15T04:24:35;28.40;;;11.60;;
32292;SDS011;43233;48.608;8.838;2024-01-15T04:27:00;27.23;;;11.03;;
32292;SDS011;43233;48.608;8.838;2024-01-15T04:29:26;22.23;;;12.60;;
32292;SDS011;43233;48.608;8.838;2024-01-15T04:31:52;23.60;;;11.20;;
32292;SDS011;43233;48.608;8.838;2024-01-15T04:34:18;31.77;;;12.57;;
32292;SDS011;43233;48.608;8.838;2024-01-15T04:36:43;30.30;;;11.97;;
32292;SDS011;43233;48.608;8.838;2024-01-15T04:39:09;21.80;;;10.73;;
32292;SDS011;43233;48.608;8.838;2024-01-15T04:41:36;25.73;;;11.83;;
32292;SDS011;43233;48.608;8.838;2024-01-15T04:44:02;24.23;;;10.97;;
32292;SDS011;43233;48.608;8.838;2024-01-15T04:46:28;25.20;;;11.57;;
32292;SDS011;43233;48.608;8.838;2024-01-15T04:48:53;22.40;;;10.87;;
32292;SDS011;43233;48.608;8.838;2024-01-15T04:51:19;20.73;;;10.17;;
32292;SDS011;43233;48.608;8.838;2024-01-15T04:53:45;17.77;;;10.27;;
32292;SDS011;43233;48.608;8.838;2024-01-15T04:56:10;21.57;;;11.40;;
32292;SDS011;43233;48.608;8.838;2024-01-15T04:58:36;23.00;;;10.13;;
32292;SDS011;43233;48.608;8.838;2024-01-15T05:01:01;23.83;;;10.30;;
32292;SDS011;43233;48.608;8.838;2024-01-15T05:03:27;30.10;;;11.33;;
32292;SDS011;43233;48.608;8.838;2024-01-15T05:05:52;17.23;;;9.67;;
32292;SDS011;43233;48.608;8.838;2024-01-15T05:08:18;19.37;;;10.37;;
32292;SDS011;43233;48.608;8.838;2024-01-15T05:10:44;23.80;;;11.00;;
32292;SDS011;43233;48.608;8.838;2024-01-15T05:13:10;23.47;;;11.03;;
32292;SDS011;43233;48.608;8.838;2024-01-15T05:15:35;18.80;;;10.27;;
32292;SDS011;43233;48.608;8.838;2024-01-15T05:18:01;23.40;;;10.27;;
32292;SDS011;43233;48.608;8.838;2024-01-15T05:20:27;22.33;;;9.67;;
32292;SDS011;43233;48.608;8.838;2024-01-15T05:22:52;23.63;;;9.87;;
32292;SDS011;43233;48.608;8.838;2024-01-15T05:25:18;15.50;;;9.10;;
32292;SDS011;43233;48.608;8.838;2024-01-15T05:27:43;19.30;;;11.10;;
32292;SDS011;43233;48.608;8.838;2024-01-15T05:30:09;15.27;;;9.27;;
32292;SDS011;43233;48.608;8.838;2024-01-15T05:32:35;18.30;;;9.30;;
32292;SDS011;43233;48.608;8.838;2024-01-15T05:35:01;15.90;;;9.40;;
32292;SDS011;43233;48.608;8.838;2024-01-15T05:37:26;20.67;;;10.63;;
32292;SDS011;43233;48.608;8.838;2024-01-15T05:39:52;16.97;;;8.83;;
32292;SDS011;43233;48.608;8.838;2024-01-15T05:42:17;25.30;;;9.30;;
32292;SDS011;43233;48.608;8.838;2024-01-15T05:44:43;15.60;;;9.40;;
32292;SDS011;43233;48.608;8.838;2024-01-15T05:47:09;16.93;;;8.67;;
32292;SDS011;43233;48.608;8.838;2024-01-15T05:49:35;21.80;;;9.80;;
32292;SDS011;43233;48.608;8.838;2024-01-15T05:52:01;15.87;;;9.17;;
32292;SDS011;43233;48.608;8.838;2024-01-15T05:54:26;15.43;;;7.80;;
32292;SDS011;43233;48.608;8.838;2024-01-15T05:56:53;15.07;;;8.33;;
32292;SDS011;43233;48.608;8.838;2024-01-15T05:59:19;20.50;;;10.47;;
32292;SDS011;43233;48.608;8.838;2024-01-15T06:01:44;18.80;;;9.83;;
32292;SDS011;43233;48.608;8.838;2024-01-15T06:04:10;36.17;;;16.47;;
32292;SDS011;43233;48.608;8.838;2024-01-15T06:06:35;30.40;;;14.07;;
32292;SDS011;43233;48.608;8.838;2024-01-15T06:09:01;40.53;;;20.60;;
32292;SDS011;43233;48.608;8.838;2024-01-15T06:11:33;41.27;;;15.70;;
32292;SDS011;43233;48.608;8.838;2024-01-15T06:13:59;25.20;;;13.23;;
32292;SDS011;43233;48.608;8.838;2024-01-15T06:16:25;22.07;;;12.10;;
32292;SDS011;43233;48.608;8.838;2024-01-15T06:18:51;27.17;;;12.50;;
32292;SDS011;43233;48.608;8.838;2024-01-15T06:21:17;25.87;;;12.83;;
32292;SDS011;43233;48.608;8.838;2024-01-15T06:23:42;18.13;;;10.17;;
32292;SDS011;43233;48.608;8.838;2024-01-15T06:26:08;18.40;;;11.83;;
32292;SDS011;43233;48.608;8.838;2024-01-15T06:28:36;20.30;;;12.33;;
32292;SDS011;43233;48.608;8.838;2024-01-15T06:31:02;17.43;;;9.23;;
32292;SDS011;43233;48.608;8.838;2024-01-15T06:33:28;15.90;;;8.80;;
32292;SDS011;43233;48.608;8.838;2024-01-15T06:35:53;19.40;;;10.70;;
32292;SDS011;43233;48.608;8.838;2024-01-15T06:38:19;19.80;;;10.53;;
32292;SDS011;43233;48.608;8.838;2024-01-15T06:40:45;18.17;;;9.47;;
32292;SDS011;43233;48.608;8.838;2024-01-15T06:43:11;26.10;;;11.03;;
32292;SDS011;43233;48.608;8.838;2024-01-15T06:45:37;20.43;;;11.20;;
32292;SDS011;43233;48.608;8.838;2024-01-15T06:48:03;24.30;;;12.13;;
32292;SDS011;43233;48.608;8.838;2024-01-15T06:50:29;23.30;;;12.53;;
32292;SDS011;43233;48.608;8.838;2024-01-15T06:52:55;22.60;;;11.67;;
32292;SDS011;43233;48.608;8.838;2024-01-15T06:55:20;18.83;;;11.30;;
32292;SDS011;43233;48.608;8.838;2024-01-15T06:57:46;20.93;;;11.83;;
32292;SDS011;43233;48.608;8.838;2024-01-15T07:00:11;18.20;;;11.20;;
32292;SDS011;43233;48.608;8.838;2024-01-15T07:02:37;17.83;;;10.37;;
32292;SDS011;43233;48.608;8.838;2024-01-15T07:05:03;18.40;;;10.17;;
32292;SDS011;43233;48.608;8.838;2024-01-15T07:07:30;23.57;;;10.30;;
32292;SDS011;43233;48.608;8.838;2024-01-15T07:09:56;16.37;;;9.73;;
32292;SDS011;43233;48.608;8.838;2024-01-15T07:12:21;18.00;;;9.83;;
32292;SDS011;43233;48.608;8.838;2024-01-15T07:14:48;19.90;;;10.37;;
32292;SDS011;43233;48.608;8.838;2024-01-15T07:17:13;22.77;;;10.63;;
32292;SDS011;43233;48.608;8.838;2024-01-15T07:19:39;22.47;;;10.60;;
32292;SDS011;43233;48.608;8.838;2024-01-15T07:22:05;18.83;;;10.33;;
32292;SDS011;43233;48.608;8.838;2024-01-15T07:24:30;26.00;;;9.87;;
32292;SDS011;43233;48.608;8.838;2024-01-15T07:26:56;21.27;;;11.00;;
32292;SDS011;43233;48.608;8.838;2024-01-15T07:29:21;13.30;;;8.33;;
32292;SDS011;43233;48.608;8.838;2024-01-15T07:31:50;15.80;;;9.30;;
32292;SDS011;43233;48.608;8.838;2024-01-15T07:34:16;20.00;;;9.63;;
32292;SDS011;43233;48.608;8.838;2024-01-15T07:36:45;15.60;;;9.50;;
32292;SDS011;43233;48.608;8.838;2024-01-15T07:39:11;12.90;;;7.57;;
32292;SDS011;43233;48.608;8.838;2024-01-15T07:41:36;13.23;;;7.90;;
32292;SDS011;43233;48.608;8.838;2024-01-15T07:44:02;13.63;;;7.43;;
32292;SDS011;43233;48.608;8.838;2024-01-15T07:46:28;13.90;;;7.83;;
32292;SDS011;43233;48.608;8.838;2024-01-15T07:48:53;15.30;;;7.93;;
32292;SDS011;43233;48.608;8.838;2024-01-15T07:51:22;9.80;;;6.60;;
32292;SDS011;43233;48.608;8.838;2024-01-15T07:53:48;11.13;;;6.80;;
32292;SDS011;43233;48.608;8.838;2024-01-15T07:56:14;15.93;;;7.43;;
32292;SDS011;43233;48.608;8.838;2024-01-15T07:58:39;11.67;;;6.43;;
32292;SDS011;43233;48.608;8.838;2024-01-15T08:01:05;12.23;;;6.33;;
32292;SDS011;43233;48.608;8.838;2024-01-15T08:03:31;10.67;;;7.70;;
32292;SDS011;43233;48.608;8.838;2024-01-15T08:05:56;14.63;;;7.33;;
32292;SDS011;43233;48.608;8.838;2024-01-15T08:08:24;15.03;;;6.40;;
32292;SDS011;43233;48.608;8.838;2024-01-15T08:10:51;12.80;;;6.87;;
32292;SDS011;43233;48.608;8.838;2024-01-15T08:13:17;10.60;;;7.70;;
32292;SDS011;43233;48.608;8.838;2024-01-15T08:15:43;15.33;;;8.23;;
32292;SDS011;43233;48.608;8.838;2024-01-15T08:18:09;17.57;;;7.50;;
32292;SDS011;43233;48.608;8.838;2024-01-15T08:20:34;10.43;;;6.60;;
32292;SDS011;43233;48.608;8.838;2024-01-15T08:23:00;9.60;;;6.43;;
32292;SDS011;43233;48.608;8.838;2024-01-15T08:25:26;13.93;;;7.30;;
32292;SDS011;43233;48.608;8.838;2024-01-15T08:27:51;12.80;;;6.60;;
32292;SDS011;43233;48.608;8.838;2024-01-15T08:30:17;16.03;;;7.07;;
32292;SDS011;43233;48.608;8.838;2024-01-15T08:32:49;13.17;;;7.03;;
32292;SDS011;43233;48.608;8.838;2024-01-15T08:35:15;7.93;;;5.17;;
32292;SDS011;43233;48.608;8.838;2024-01-15T08:37:41;8.23;;;6.57;;
32292;SDS011;43233;48.608;8.838;2024-01-15T08:40:06;12.03;;;7.60;;
32292;SDS011;43233;48.608;8.838;2024-01-15T08:42:32;10.43;;;6.97;;
32292;SDS011;43233;48.608;8.838;2024-01-15T08:44:58;10.60;;;6.37;;
32292;SDS011;43233;48.608;8.838;2024-01-15T08:47:23;12.47;;;7.73;;
32292;SDS011;43233;48.608;8.838;2024-01-15T08:49:50;11.93;;;7.63;;
32292;SDS011;43233;48.608;8.838;2024-01-15T08:52:16;11.53;;;6.20;;
32292;SDS011;43233;48.608;8.838;2024-01-15T08:54:41;10.43;;;6.40;;
32292;SDS011;43233;48.608;8.838;2024-01-15T08:57:07;10.00;;;7.20;;
32292;SDS011;43233;48.608;8.838;2024-01-15T08:59:33;11.70;;;6.50;;
32292;SDS011;43233;48.608;8.838;2024-01-15T09:01:58;23.47;;;7.40;;
32292;SDS011;43233;48.608;8.838;2024-01-15T09:04:24;11.43;;;7.10;;
32292;SDS011;43233;48.608;8.838;2024-01-15T09:06:50;10.17;;;6.47;;
32292;SDS011;43233;48.608;8.838;2024-01-15T09:09:16;13.47;;;6.67;;
32292;SDS011;43233;48.608;8.838;2024-01-15T09:11:41;10.07;;;5.83;;
32292;SDS011;43233;48.608;8.838;2024-01-15T09:14:07;10.73;;;5.80;;
32292;SDS011;43233;48.608;8.838;2024-01-15T09:16:34;17.60;;;6.50;;
32292;SDS011;43233;48.608;8.838;2024-01-15T09:19:00;11.03;;;6.97;;
32292;SDS011;43233;48.608;8.838;2024-01-15T09:21:25;11.00;;;6.80;;
32292;SDS011;43233;48.608;8.838;2024-01-15T09:23:51;9.47;;;6.53;;
32292;SDS011;43233;48.608;8.838;2024-01-15T09:26:16;10.70;;;6.20;;
32292;SDS011;43233;48.608;8.838;2024-01-15T09:28:42;9.67;;;5.47;;
32292;SDS011;43233;48.608;8.838;2024-01-15T09:31:08;14.10;;;7.23;;
32292;SDS011;43233;48.608;8.838;2024-01-15T09:33:33;10.87;;;6.67;;
32292;SDS011;43233;48.608;8.838;2024-01-15T09:36:03;8.33;;;6.37;;
32292;SDS011;43233;48.608;8.838;2024-01-15T09:38:32;14.03;;;6.83;;
32292;SDS011;43233;48.608;8.838;2024-01-15T09:40:57;12.50;;;6.53;;
32292;SDS011;43233;48.608;8.838;2024-01-15T09:43:23;13.23;;;6.27;;
32292;SDS011;43233;48.608;8.838;2024-01-15T09:45:49;9.27;;;5.77;;
32292;SDS011;43233;48.608;8.838;2024-01-15T09:48:15;11.20;;;7.23;;
32292;SDS011;43233;48.608;8.838;2024-01-15T09:50:41;10.20;;;5.00;;
32292;SDS011;43233;48.608;8.838;2024-01-15T09:53:07;9.57;;;6.23;;
32292;SDS011;43233;48.608;8.838;2024-01-15T09:55:35;11.33;;;5.37;;
32292;SDS011;43233;48.608;8.838;2024-01-15T09:58:03;12.13;;;6.80;;
32292;SDS011;43233;48.608;8.838;2024-01-15T10:00:28;16.30;;;6.20;;
32292;SDS011;43233;48.608;8.838;2024-01-15T10:02:56;10.63;;;6.77;;
32292;SDS011;43233;48.608;8.838;2024-01-15T10:05:22;17.60;;;6.47;;
32292;SDS011;43233;48.608;8.838;2024-01-15T10:07:47;9.00;;;6.20;;
32292;SDS011;43233;48.608;8.838;2024-01-15T10:10:17;7.90;;;5.73;;
32292;SDS011;43233;48.608;8.838;2024-01-15T10:12:42;11.13;;;6.97;;
32292;SDS011;43233;48.608;8.838;2024-01-15T10:15:09;8.43;;;5.20;;
32292;SDS011;43233;48.608;8.838;2024-01-15T10:17:38;7.67;;;5.97;;
32292;SDS011;43233;48.608;8.838;2024-01-15T10:20:11;10.87;;;5.37;;
32292;SDS011;43233;48.608;8.838;2024-01-15T10:22:43;16.77;;;7.30;;
32292;SDS011;43233;48.608;8.838;2024-01-15T10:25:12;12.40;;;6.50;;
32292;SDS011;43233;48.608;8.838;2024-01-15T10:27:39;10.63;;;6.50;;
32292;SDS011;43233;48.608;8.838;2024-01-15T10:30:06;13.60;;;6.57;;
32292;SDS011;43233;48.608;8.838;2024-01-15T10:32:32;12.83;;;7.33;;
32292;SDS011;43233;48.608;8.838;2024-01-15T10:34:58;11.77;;;5.70;;
32292;SDS011;43233;48.608;8.838;2024-01-15T10:37:24;11.97;;;6.80;;
32292;SDS011;43233;48.608;8.838;2024-01-15T10:39:50;13.43;;;8.03;;
32292;SDS011;43233;48.608;8.838;2024-01-15T10:42:16;11.83;;;6.80;;
32292;SDS011;43233;48.608;8.838;2024-01-15T10:44:43;13.67;;;7.33;;
32292;SDS011;43233;48.608;8.838;2024-01-15T10:47:09;11.77;;;6.67;;
32292;SDS011;43233;48.608;8.838;2024-01-15T10:49:35;10.83;;;6.20;;
32292;SDS011;43233;48.608;8.838;2024-01-15T10:52:01;11.63;;;7.13;;
32292;SDS011;43233;48.608;8.838;2024-01-15T10:54:28;10.57;;;6.80;;
32292;SDS011;43233;48.608;8.838;2024-01-15T10:56:55;11.57;;;6.10;;
32292;SDS011;43233;48.608;8.838;2024-01-15T10:59:21;12.33;;;7.10;;
32292;SDS011;43233;48.608;8.838;2024-01-15T11:01:48;12.13;;;6.03;;
32292;SDS011;43233;48.608;8.838;2024-01-15T11:04:15;10.23;;;7.10;;
32292;SDS011;43233;48.608;8.838;2024-01-15T11:06:45;11.63;;;6.37;;
32292;SDS011;43233;48.608;8.838;2024-01-15T11:09:13;10.33;;;6.50;;
32292;SDS011;43233;48.608;8.838;2024-01-15T11:11:40;11.90;;;6.00;;
32292;SDS011;43233;48.608;8.838;2024-01-15T11:14:08;16.30;;;7.20;;
32292;SDS011;43233;48.608;8.838;2024-01-15T11:19:21;12.90;;;7.03;;
32292;SDS011;43233;48.608;8.838;2024-01-15T11:21:47;10.10;;;6.87;;
32292;SDS011;43233;48.608;8.838;2024-01-15T11:24:32;12.30;;;6.73;;
32292;SDS011;43233;48.608;8.838;2024-01-15T11:27:00;18.50;;;7.40;;
32292;SDS011;43233;48.608;8.838;2024-01-15T11:29:29;15.93;;;7.40;;
32292;SDS011;43233;48.608;8.838;2024-01-15T11:37:27;9.47;;;6.67;;
32292;SDS011;43233;48.608;8.838;2024-01-15T11:39:55;14.53;;;7.80;;
32292;SDS011;43233;48.608;8.838;2024-01-15T11:42:26;10.70;;;7.20;;
32292;SDS011;43233;48.608;8.838;2024-01-15T11:44:52;11.30;;;6.23;;
32292;SDS011;43233;48.608;8.838;2024-01-15T11:47:24;11.80;;;6.57;;
32292;SDS011;43233;48.608;8.838;2024-01-15T11:50:14;9.07;;;6.60;;
32292;SDS011;43233;48.608;8.838;2024-01-15T11:52:40;14.67;;;6.70;;
32292;SDS011;43233;48.608;8.838;2024-01-15T11:55:22;8.90;;;7.17;;
32292;SDS011;43233;48.608;8.838;2024-01-15T11:57:54;11.30;;;6.60;;
32292;SDS011;43233;48.608;8.838;2024-01-15T12:00:22;11.00;;;6.63;;
32292;SDS011;43233;48.608;8.838;2024-01-15T12:02:49;11.40;;;7.40;;
32292;SDS011;43233;48.608;8.838;2024-01-15T12:05:19;13.97;;;7.90;;
32292;SDS011;43233;48.608;8.838;2024-01-15T12:07:46;13.97;;;6.90;;
32292;SDS011;43233;48.608;8.838;2024-01-15T12:10:15;9.57;;;7.57;;
32292;SDS011;43233;48.608;8.838;2024-01-15T12:12:58;9.80;;;6.10;;
32292;SDS011;43233;48.608;8.838;2024-01-15T12:15:29;12.83;;;6.47;;
32292;SDS011;43233;48.608;8.838;2024-01-15T12:17:56;8.87;;;5.67;;
32292;SDS011;43233;48.608;8.838;2024-01-15T12:20:24;11.97;;;7.20;;
32292;SDS011;43233;48.608;8.838;2024-01-15T12:22:50;12.77;;;6.63;;
32292;SDS011;43233;48.608;8.838;2024-01-15T12:25:15;16.23;;;7.27;;
32292;SDS011;43233;48.608;8.838;2024-01-15T12:27:41;7.73;;;6.23;;
32292;SDS011;43233;48.608;8.838;2024-01-15T12:30:07;11.03;;;6.20;;
32292;SDS011;43233;48.608;8.838;2024-01-15T12:32:36;13.30;;;9.43;;
32292;SDS011;43233;48.608;8.838;2024-01-15T12:35:02;19.13;;;7.87;;
32292;SDS011;43233;48.608;8.838;2024-01-15T12:37:29;9.33;;;6.77;;
32292;SDS011;43233;48.608;8.838;2024-01-15T12:39:55;7.97;;;5.70;;
32292;SDS011;43233;48.608;8.838;2024-01-15T12:42:24;6.97;;;5.07;;
32292;SDS011;43233;48.608;8.838;2024-01-15T12:44:49;9.40;;;7.13;;
32292;SDS011;43233;48.608;8.838;2024-01-15T12:47:15;7.53;;;6.73;;
32292;SDS011;43233;48.608;8.838;2024-01-15T12:49:46;9.90;;;6.00;;
32292;SDS011;43233;48.608;8.838;2024-01-15T12:52:15;6.80;;;4.77;;
32292;SDS011;43233;48.608;8.838;2024-01-15T12:54:41;9.43;;;5.13;;
32292;SDS011;43233;48.608;8.838;2024-01-15T12:57:06;5.20;;;4.80;;
32292;SDS011;43233;48.608;8.838;2024-01-15T12:59:32;5.43;;;4.50;;
32292;SDS011;43233;48.608;8.838;2024-01-15T13:01:58;5.27;;;4.80;;
32292;SDS011;43233;48.608;8.838;2024-01-15T13:04:24;5.13;;;4.63;;
32292;SDS011;43233;48.608;8.838;2024-01-15T13:06:50;10.17;;;7.10;;
32292;SDS011;43233;48.608;8.838;2024-01-15T13:09:16;6.13;;;5.23;;
32292;SDS011;43233;48.608;8.838;2024-01-15T13:11:43;5.93;;;5.33;;
32292;SDS011;43233;48.608;8.838;2024-01-15T13:14:10;4.60;;;4.20;;
32292;SDS011;43233;48.608;8.838;2024-01-15T13:16:35;4.77;;;4.00;;
32292;SDS011;43233;48.608;8.838;2024-01-15T13:19:01;6.20;;;4.53;;
32292;SDS011;43233;48.608;8.838;2024-01-15T13:21:28;4.00;;;3.70;;
32292;SDS011;43233;48.608;8.838;2024-01-15T13:23:54;4.47;;;4.07;;
32292;SDS011;43233;48.608;8.838;2024-01-15T13:26:20;8.00;;;4.97;;
32292;SDS011;43233;48.608;8.838;2024-01-15T13:28:46;5.60;;;4.60;;
32292;SDS011;43233;48.608;8.838;2024-01-15T13:31:12;6.43;;;4.80;;
32292;SDS011;43233;48.608;8.838;2024-01-15T13:33:38;5.40;;;4.37;;
32292;SDS011;43233;48.608;8.838;2024-01-15T13:36:04;3.67;;;3.47;;
32292;SDS011;43233;48.608;8.838;2024-01-15T13:38:33;3.43;;;3.23;;
32292;SDS011;43233;48.608;8.838;2024-01-15T13:41:01;4.33;;;3.93;;
32292;SDS011;43233;48.608;8.838;2024-01-15T13:43:27;4.60;;;4.20;;
32292;SDS011;43233;48.608;8.838;2024-01-15T13:45:53;5.13;;;4.73;;
32292;SDS011;43233;48.608;8.838;2024-01-15T13:48:19;7.33;;;3.57;;
32292;SDS011;43233;48.608;8.838;2024-01-15T13:50:45;8.13;;;7.27;;
32292;SDS011;43233;48.608;8.838;2024-01-15T13:53:11;4.50;;;4.10;;
32292;SDS011;43233;48.608;8.838;2024-01-15T13:55:36;5.00;;;4.60;;
32292;SDS011;43233;48.608;8.838;2024-01-15T13:58:02;4.80;;;4.37;;
32292;SDS011;43233;48.608;8.838;2024-01-15T14:00:30;5.50;;;5.00;;
32292;SDS011;43233;48.608;8.838;2024-01-15T14:02:57;6.50;;;4.23;;
32292;SDS011;43233;48.608;8.838;2024-01-15T14:05:22;4.93;;;4.53;;
32292;SDS011;43233;48.608;8.838;2024-01-15T14:07:48;6.17;;;5.67;;
32292;SDS011;43233;48.608;8.838;2024-01-15T14:10:14;5.40;;;4.10;;
32292;SDS011;43233;48.608;8.838;2024-01-15T14:12:40;4.97;;;4.57;;
32292;SDS011;43233;48.608;8.838;2024-01-15T14:15:05;5.70;;;5.20;;
32292;SDS011;43233;48.608;8.838;2024-01-15T14:17:31;4.50;;;4.10;;
32292;SDS011;43233;48.608;8.838;2024-01-15T14:19:57;4.37;;;3.97;;
32292;SDS011;43233;48.608;8.838;2024-01-15T14:22:23;6.10;;;3.50;;
32292;SDS011;43233;48.608;8.838;2024-01-15T14:24:48;3.23;;;2.93;;
32292;SDS011;43233;48.608;8.838;2024-01-15T14:27:15;3.10;;;2.90;;
32292;SDS011;43233;48.608;8.838;2024-01-15T14:29:41;2.90;;;2.73;;
32292;SDS011;43233;48.608;8.838;2024-01-15T14:32:07;3.90;;;3.60;;
32292;SDS011;43233;48.608;8.838;2024-01-15T14:34:32;3.03;;;2.83;;
32292;SDS011;43233;48.608;8.838;2024-01-15T14:36:58;5.83;;;4.17;;
32292;SDS011;43233;48.608;8.838;2024-01-15T14:39:24;3.70;;;3.40;;